Terminal Aerodrome Forecast
Issued by NWS

Home | Current Version | Previous Version | Text Only | Print | Product List | Glossary On
Versions: 1 2 3 4 5 6 7 8 9 10 11 12 13 14 15 16 17 18 19 20 21 22
000
FTUS43 KDMX 231747
TAFFOD
TAF
KFOD 231747Z 2318/2418 32013G24KT P6SM SCT070
     FM240100 32010G17KT P6SM SCT060
     FM240900 33015G23KT P6SM FEW070
     FM241600 33018G28KT P6SM FEW100=

USA.gov is the U.S. government's official web portal to all federal, state and local government web resources and services.